createdAt,value
2018-11-04T00:00:00.000Z,12.9
2018-11-04T00:05:00.000Z,12.9
2018-11-04T00:10:00.000Z,12.9
2018-11-04T00:15:00.000Z,12.9
2018-11-04T00:20:00.000Z,12.9
2018-11-04T00:25:00.000Z,12.9
2018-11-04T00:30:00.000Z,12.9
2018-11-04T00:35:00.000Z,12.9
2018-11-04T00:40:00.000Z,12.9
2018-11-04T00:45:00.000Z,12.9
2018-11-04T00:50:00.000Z,12.9
2018-11-04T00:55:00.000Z,13.0
2018-11-04T01:00:00.000Z,13.0
2018-11-04T01:05:00.000Z,13.0
2018-11-04T01:10:00.000Z,13.0
2018-11-04T01:15:00.000Z,13.0
2018-11-04T01:20:00.000Z,13.0
2018-11-04T01:25:00.000Z,13.0
2018-11-04T01:30:00.000Z,13.0
2018-11-04T01:35:00.000Z,13.0
2018-11-04T01:40:00.000Z,12.9
2018-11-04T01:45:00.000Z,12.9
2018-11-04T01:50:00.000Z,12.9
2018-11-04T01:55:00.000Z,12.9
2018-11-04T02:00:00.000Z,13.0
2018-11-04T02:05:00.000Z,13.0
2018-11-04T02:10:00.000Z,12.9
2018-11-04T02:15:00.000Z,12.9
2018-11-04T02:20:00.000Z,12.8
2018-11-04T02:25:00.000Z,12.7
2018-11-04T02:30:00.000Z,12.8
2018-11-04T02:35:00.000Z,12.7
2018-11-04T02:40:00.000Z,12.7
2018-11-04T02:45:00.000Z,12.7
2018-11-04T02:50:00.000Z,12.8
2018-11-04T02:55:00.000Z,12.8
2018-11-04T03:00:00.000Z,12.8
2018-11-04T03:05:00.000Z,12.8
2018-11-04T03:10:00.000Z,12.9
2018-11-04T03:15:00.000Z,12.9
2018-11-04T03:20:00.000Z,12.9
2018-11-04T03:25:00.000Z,12.9
2018-11-04T03:30:00.000Z,12.9
2018-11-04T03:35:00.000Z,12.9
2018-11-04T03:40:00.000Z,13.0
2018-11-04T03:45:00.000Z,13.0
2018-11-04T03:50:00.000Z,13.1
2018-11-04T03:55:00.000Z,13.1
2018-11-04T04:00:00.000Z,13.1
2018-11-04T04:11:00.000Z,13.1
2018-11-04T04:16:00.000Z,13.0
2018-11-04T04:21:00.000Z,12.9
2018-11-04T04:26:00.000Z,12.9
2018-11-04T04:31:00.000Z,12.8
2018-11-04T04:36:00.000Z,12.9
2018-11-04T04:41:00.000Z,12.8
2018-11-04T04:46:00.000Z,12.8
2018-11-04T04:51:00.000Z,12.8
2018-11-04T04:56:00.000Z,12.8
2018-11-04T05:01:00.000Z,12.8
2018-11-04T05:06:00.000Z,12.8
2018-11-04T05:11:00.000Z,12.9
2018-11-04T05:16:00.000Z,12.9
2018-11-04T05:21:00.000Z,12.9
2018-11-04T05:26:00.000Z,12.9
2018-11-04T05:31:00.000Z,13.0
2018-11-04T05:36:00.000Z,13.0
2018-11-04T05:41:00.000Z,13.0
2018-11-04T05:46:00.000Z,13.0
2018-11-04T05:51:00.000Z,13.0
2018-11-04T05:56:00.000Z,13.1
2018-11-04T06:01:00.000Z,13.1
2018-11-04T06:06:00.000Z,13.1
2018-11-04T06:11:00.000Z,13.1
2018-11-04T06:16:00.000Z,13.2
2018-11-04T06:21:00.000Z,13.2
2018-11-04T06:26:00.000Z,13.2
2018-11-04T06:31:00.000Z,13.2
2018-11-04T06:36:00.000Z,13.3
2018-11-04T06:41:00.000Z,13.3
2018-11-04T06:46:00.000Z,13.3
2018-11-04T06:51:00.000Z,13.4
2018-11-04T06:56:00.000Z,13.4
2018-11-04T07:01:00.000Z,13.4
2018-11-04T07:06:00.000Z,13.4
2018-11-04T07:11:00.000Z,13.4
2018-11-04T07:16:00.000Z,13.4
2018-11-04T07:21:00.000Z,13.4
2018-11-04T07:26:00.000Z,13.5
2018-11-04T07:31:00.000Z,13.5
2018-11-04T07:36:00.000Z,13.5
2018-11-04T07:41:00.000Z,13.6
2018-11-04T07:46:00.000Z,13.6
2018-11-04T07:51:00.000Z,13.6
2018-11-04T07:56:00.000Z,13.7
2018-11-04T08:01:00.000Z,13.7
2018-11-04T08:06:00.000Z,13.7
2018-11-04T08:11:00.000Z,13.8
2018-11-04T08:16:00.000Z,13.8
2018-11-04T08:21:00.000Z,13.9
2018-11-04T08:26:00.000Z,14.0
2018-11-04T08:31:00.000Z,14.1
2018-11-04T08:36:00.000Z,14.2
2018-11-04T08:41:00.000Z,14.2
2018-11-04T08:46:00.000Z,14.2
2018-11-04T08:51:00.000Z,14.3
2018-11-04T08:56:00.000Z,14.2
2018-11-04T09:01:00.000Z,14.2
2018-11-04T09:06:00.000Z,14.1
2018-11-04T09:11:00.000Z,14.0
2018-11-04T09:16:00.000Z,13.9
2018-11-04T09:21:00.000Z,13.9
2018-11-04T09:26:00.000Z,13.8
2018-11-04T09:31:00.000Z,13.8
2018-11-04T09:36:00.000Z,13.7
2018-11-04T09:41:00.000Z,13.6
2018-11-04T09:46:00.000Z,13.6
2018-11-04T09:51:00.000Z,13.5
2018-11-04T09:56:00.000Z,13.5
2018-11-04T10:01:00.000Z,13.5
2018-11-04T10:07:00.000Z,13.5
2018-11-04T10:12:00.000Z,13.5
2018-11-04T10:17:00.000Z,13.4
2018-11-04T10:22:00.000Z,13.4
2018-11-04T10:27:00.000Z,13.4
2018-11-04T10:32:00.000Z,13.4
2018-11-04T10:37:00.000Z,13.4
2018-11-04T10:42:00.000Z,13.5
2018-11-04T10:47:00.000Z,13.6
2018-11-04T10:52:00.000Z,13.6
2018-11-04T10:57:00.000Z,13.6
2018-11-04T11:02:00.000Z,13.6
2018-11-04T11:07:00.000Z,13.5
2018-11-04T11:12:00.000Z,13.4
2018-11-04T11:17:00.000Z,13.3
2018-11-04T11:22:00.000Z,13.3
2018-11-04T11:27:00.000Z,13.3
2018-11-04T11:32:00.000Z,13.4
2018-11-04T11:37:00.000Z,13.4
2018-11-04T11:42:00.000Z,13.5
2018-11-04T11:47:00.000Z,13.6
2018-11-04T11:52:00.000Z,13.6
2018-11-04T11:57:00.000Z,13.7
2018-11-04T12:02:00.000Z,13.6
2018-11-04T12:07:00.000Z,13.6
2018-11-04T12:12:00.000Z,13.6
2018-11-04T12:17:00.000Z,13.7
2018-11-04T12:22:00.000Z,13.6
2018-11-04T12:27:00.000Z,13.6
2018-11-04T12:32:00.000Z,13.6
2018-11-04T12:37:00.000Z,13.6
2018-11-04T12:42:00.000Z,13.6
2018-11-04T12:47:00.000Z,13.6
2018-11-04T12:52:00.000Z,13.6
2018-11-04T12:57:00.000Z,13.6
2018-11-04T13:02:00.000Z,13.6
2018-11-04T13:07:00.000Z,13.6
2018-11-04T13:12:00.000Z,13.7
2018-11-04T13:17:00.000Z,13.7
2018-11-04T13:22:00.000Z,13.8
2018-11-04T13:27:00.000Z,13.8
2018-11-04T13:32:00.000Z,13.9
2018-11-04T13:37:00.000Z,13.9
2018-11-04T13:42:00.000Z,13.9
2018-11-04T13:47:00.000Z,14.0
2018-11-04T13:52:00.000Z,14.0
2018-11-04T13:57:00.000Z,14.0
2018-11-04T14:02:00.000Z,13.9
2018-11-04T14:07:00.000Z,13.9
2018-11-04T14:12:00.000Z,13.9
2018-11-04T14:17:00.000Z,13.9
2018-11-04T14:22:00.000Z,13.9
2018-11-04T14:27:00.000Z,13.9
2018-11-04T14:32:00.000Z,14.0
2018-11-04T14:37:00.000Z,13.9
2018-11-04T14:42:00.000Z,13.9
2018-11-04T14:47:00.000Z,13.9
2018-11-04T14:52:00.000Z,13.9
2018-11-04T14:57:00.000Z,13.8
2018-11-04T15:02:00.000Z,13.8
2018-11-04T15:07:00.000Z,13.8
2018-11-04T15:12:00.000Z,13.7
2018-11-04T15:17:00.000Z,13.7
2018-11-04T15:22:00.000Z,13.7
2018-11-04T15:27:00.000Z,13.7
2018-11-04T15:32:00.000Z,13.6
2018-11-04T15:37:00.000Z,13.6
2018-11-04T15:42:00.000Z,13.6
2018-11-04T15:47:00.000Z,13.6
2018-11-04T15:53:00.000Z,13.6
2018-11-04T15:58:00.000Z,13.5
2018-11-04T16:03:00.000Z,13.5
2018-11-04T16:08:00.000Z,13.6
2018-11-04T16:13:00.000Z,13.5
2018-11-04T16:18:00.000Z,13.5
2018-11-04T16:23:00.000Z,13.5
2018-11-04T16:28:00.000Z,13.5
2018-11-04T16:33:00.000Z,13.4
2018-11-04T16:38:00.000Z,13.4
2018-11-04T16:43:00.000Z,13.4
2018-11-04T16:48:00.000Z,13.3
2018-11-04T16:53:00.000Z,13.3
2018-11-04T16:58:00.000Z,13.2
2018-11-04T17:03:00.000Z,13.2
2018-11-04T17:08:00.000Z,13.2
2018-11-04T17:13:00.000Z,13.2
2018-11-04T17:18:00.000Z,13.1
2018-11-04T17:23:00.000Z,13.1
2018-11-04T17:28:00.000Z,13.1
2018-11-04T17:33:00.000Z,13.0
2018-11-04T17:38:00.000Z,13.0
2018-11-04T17:43:00.000Z,13.0
2018-11-04T17:48:00.000Z,13.0
2018-11-04T17:53:00.000Z,13.0
2018-11-04T17:58:00.000Z,13.0
2018-11-04T18:03:00.000Z,13.0
2018-11-04T18:08:00.000Z,13.0
2018-11-04T18:13:00.000Z,13.0
2018-11-04T18:18:00.000Z,13.0
2018-11-04T18:23:00.000Z,13.0
2018-11-04T18:28:00.000Z,13.0
2018-11-04T18:33:00.000Z,13.0
2018-11-04T18:38:00.000Z,13.1
2018-11-04T18:43:00.000Z,13.1
2018-11-04T18:48:00.000Z,13.0
2018-11-04T18:53:00.000Z,13.0
2018-11-04T18:58:00.000Z,13.0
2018-11-04T19:03:00.000Z,13.0
2018-11-04T19:08:00.000Z,13.0
2018-11-04T19:13:00.000Z,13.0
2018-11-04T19:18:00.000Z,13.0
2018-11-04T19:23:00.000Z,13.0
2018-11-04T19:28:00.000Z,13.0
2018-11-04T19:33:00.000Z,13.0
2018-11-04T19:38:00.000Z,13.0
2018-11-04T19:43:00.000Z,13.0
2018-11-04T19:48:00.000Z,13.0
2018-11-04T19:53:00.000Z,13.0
2018-11-04T19:58:00.000Z,13.0
2018-11-04T20:03:00.000Z,13.0
2018-11-04T20:08:00.000Z,13.0
2018-11-04T20:13:00.000Z,12.9
2018-11-04T20:18:00.000Z,12.9
2018-11-04T20:23:00.000Z,12.9
2018-11-04T20:28:00.000Z,12.9
2018-11-04T20:33:00.000Z,13.0
2018-11-04T20:38:00.000Z,12.9
2018-11-04T20:43:00.000Z,12.9
2018-11-04T20:49:00.000Z,12.9
2018-11-04T20:54:00.000Z,12.9
2018-11-04T20:59:00.000Z,12.9
2018-11-04T21:04:00.000Z,12.8
2018-11-04T21:09:00.000Z,12.8
2018-11-04T21:14:00.000Z,12.8
2018-11-04T21:19:00.000Z,12.8
2018-11-04T21:24:00.000Z,12.7
2018-11-04T21:29:00.000Z,12.7
2018-11-04T21:34:00.000Z,12.7
2018-11-04T21:39:00.000Z,12.7
2018-11-04T21:44:00.000Z,12.7
2018-11-04T21:49:00.000Z,12.7
2018-11-04T21:54:00.000Z,12.6
2018-11-04T21:59:00.000Z,12.6
2018-11-04T22:04:00.000Z,12.6
2018-11-04T22:09:00.000Z,12.5
2018-11-04T22:14:00.000Z,12.4
2018-11-04T22:19:00.000Z,12.3
2018-11-04T22:24:00.000Z,12.3
2018-11-04T22:29:00.000Z,12.2
2018-11-04T22:34:00.000Z,12.2
2018-11-04T22:39:00.000Z,12.1
2018-11-04T22:44:00.000Z,12.0
2018-11-04T22:49:00.000Z,11.9
2018-11-04T22:54:00.000Z,11.9
2018-11-04T22:59:00.000Z,11.8
2018-11-04T23:04:00.000Z,11.8
2018-11-04T23:09:00.000Z,11.7
2018-11-04T23:14:00.000Z,11.7
2018-11-04T23:19:00.000Z,11.7
2018-11-04T23:24:00.000Z,11.8
2018-11-04T23:29:00.000Z,11.8
2018-11-04T23:34:00.000Z,11.7
2018-11-04T23:39:00.000Z,11.7
2018-11-04T23:44:00.000Z,11.7
2018-11-04T23:49:00.000Z,11.7
2018-11-04T23:54:00.000Z,11.7
2018-11-04T23:59:00.000Z,11.8
